Time;durP1;ratioP1;P1;durP2;ratioP2;P2;SDS_P1;SDS_P2;PMS_P1;PMS_P2;Temp;Humidity;BMP_temperature;BMP_pressure;BME280_temperature;BME280_humidity;BME280_pressure;Samples;Min_cycle;Max_cycle;Signal;HPM_P1;HPM_P2
2024/03/29 00:09:35;;;;;;;1.90;1.20;;;;;;;9.43;63.05;97594.41;102569;1292;600359;-24
2024/03/29 00:19:01;;;;;;;1.20;0.80;;;;;;;9.08;63.53;97597.92;102596;1292;600214;-24
2024/03/29 00:29:05;;;;;;;4.30;1.40;;;;;;;9.09;63.58;97585.89;102637;1288;600221;-24
2024/03/29 00:31:33;;;;;;;3.20;1.50;;;;;;;9.26;62.72;97581.45;104797;1268;61148;-24
2024/03/29 00:34:01;;;;;;;4.40;1.40;;;;;;;9.13;62.85;97579.55;104793;1271;61178;-25
2024/03/29 00:36:28;;;;;;;5.60;1.10;;;;;;;8.97;63.11;97577.65;104802;1267;72997;-26
2024/03/29 00:38:56;;;;;;;2.30;1.10;;;;;;;8.69;63.90;97577.66;104820;1266;74338;-27
2024/03/29 00:41:23;;;;;;;1.30;1.00;;;;;;;8.45;65.09;97576.92;104781;1267;72646;-27
2024/03/29 00:43:51;;;;;;;1.60;1.20;;;;;;;9.04;63.36;97571.35;101637;1263;4715607;-27
2024/03/29 00:46:18;;;;;;;1.10;1.00;;;;;;;9.33;62.01;97565.20;105096;1269;61161;-27
2024/03/29 00:48:47;;;;;;;1.80;1.10;;;;;;;9.42;61.46;97569.77;105129;1262;71757;-27
2024/03/29 00:51:14;;;;;;;2.00;1.30;;;;;;;9.11;62.08;97572.34;105094;1268;73590;-27
2024/03/29 01:01:25;;;;;;;2.20;1.60;;;;;;;9.13;62.75;97562.65;102500;1292;599927;-26
2024/03/29 01:03:52;;;;;;;2.50;1.00;;;;;;;9.21;61.82;97553.21;104770;1271;61259;-26
2024/03/29 01:06:20;;;;;;;2.60;1.20;;;;;;;9.19;61.83;97551.81;104713;1267;61137;-26
2024/03/29 01:08:47;;;;;;;3.70;1.50;;;;;;;9.06;62.00;97552.63;104770;1273;71835;-27
2024/03/29 01:11:15;;;;;;;1.80;1.30;;;;;;;8.89;62.61;97551.31;104710;1272;74348;-27
2024/03/29 01:13:43;;;;;;;3.30;0.90;;;;;;;8.73;63.13;97553.40;104681;1274;72720;-27
2024/03/29 01:16:10;;;;;;;2.20;1.10;;;;;;;8.82;63.14;97551.29;101443;1269;4684156;-27
2024/03/29 01:18:38;;;;;;;3.60;1.50;;;;;;;9.38;61.50;97554.42;105024;1269;61212;-27
2024/03/29 01:21:06;;;;;;;2.00;1.20;;;;;;;9.47;60.55;97549.89;104978;1270;72136;-27
2024/03/29 01:23:33;;;;;;;4.80;1.60;;;;;;;9.43;60.70;97553.21;104892;1268;74350;-27
2024/03/29 01:26:01;;;;;;;4.80;1.80;;;;;;;9.39;61.00;97547.79;104973;1270;73675;-27
2024/03/29 01:28:29;;;;;;;2.10;1.20;;;;;;;9.36;60.91;97547.84;105295;1261;61155;-27
2024/03/29 01:30:58;;;;;;;2.50;1.50;;;;;;;9.20;61.37;97543.21;105240;1257;61142;-27
2024/03/29 01:33:26;;;;;;;1.80;0.80;;;;;;;9.01;62.25;97541.34;105420;1258;71997;-27
2024/03/29 01:43:38;;;;;;;1.20;1.00;;;;;;;9.47;61.29;97528.51;102553;1292;599457;-26
2024/03/29 01:46:08;;;;;;;2.70;1.10;;;;;;;9.37;61.17;97526.30;104799;1269;61161;-27
2024/03/29 01:48:36;;;;;;;2.80;1.50;;;;;;;9.13;61.76;97527.68;104795;1266;61651;-29
2024/03/29 01:51:04;;;;;;;1.00;0.80;;;;;;;8.92;62.47;97536.09;104953;1262;73037;-28
2024/03/29 01:53:31;;;;;;;0.70;0.70;;;;;;;8.94;62.91;97535.39;104860;1270;74376;-28
2024/03/29 01:56:00;;;;;;;2.40;1.10;;;;;;;9.43;61.36;97540.74;104840;1266;72648;-28
2024/03/29 01:58:28;;;;;;;2.00;1.40;;;;;;;9.63;60.47;97537.61;101479;1268;61165;-28
2024/03/29 02:00:58;;;;;;;0.60;0.60;;;;;;;9.66;60.51;97539.15;104855;1263;72963;-28
2024/03/29 02:11:09;;;;;;;1.70;1.10;;;;;;;9.09;62.88;97531.21;102672;1299;600181;-26
2024/03/29 02:13:37;;;;;;;1.20;0.80;;;;;;;9.61;61.58;97531.85;104829;1270;61073;-26
2024/03/29 02:16:05;;;;;;;3.30;1.50;;;;;;;9.94;60.44;97532.06;104916;1269;61130;-26
2024/03/29 02:18:33;;;;;;;2.20;1.20;;;;;;;10.06;60.12;97528.07;104837;1273;72786;-26
2024/03/29 02:21:00;;;;;;;0.90;0.60;;;;;;;9.94;60.35;97528.42;104724;1264;73358;-28
2024/03/29 02:23:29;;;;;;;2.10;1.40;;;;;;;9.74;61.25;97530.38;105003;1269;71436;-28
2024/03/29 02:25:57;;;;;;;0.70;0.60;;;;;;;9.67;61.59;97528.85;101580;1278;61745;-29
2024/03/29 02:28:25;;;;;;;2.00;0.70;;;;;;;9.55;62.20;97525.56;105901;1255;73082;-28
2024/03/29 02:30:52;;;;;;;0.60;0.60;;;;;;;9.57;62.50;97526.55;105865;1256;74380;-28
2024/03/29 02:33:23;;;;;;;1.50;0.60;;;;;;;10.08;60.97;97526.60;105789;1257;72631;-28
2024/03/29 02:42:54;;;;;;;1.00;0.80;;;;;;;10.23;60.26;97532.81;102638;1294;600813;-26
2024/03/29 02:45:22;;;;;;;1.90;1.10;;;;;;;10.16;60.68;97535.47;104825;1272;61838;-28
2024/03/29 02:47:49;;;;;;;2.60;1.20;;;;;;;10.13;60.68;97532.66;104799;1272;61183;-28
2024/03/29 02:50:17;;;;;;;1.10;0.80;;;;;;;9.97;61.28;97532.04;104801;1272;71736;-28
2024/03/29 03:00:32;;;;;;;2.50;1.10;;;;;;;10.55;59.76;97538.23;102572;1296;600122;-26
2024/03/29 03:03:00;;;;;;;3.10;1.00;;;;;;;10.45;59.88;97537.41;104845;1266;61168;-26
2024/03/29 03:13:12;;;;;;;4.60;1.10;;;;;;;10.49;61.01;97549.31;102618;1294;599524;-26
2024/03/29 03:15:39;;;;;;;0.80;0.80;;;;;;;10.98;59.58;97550.44;105103;1269;61170;-26
2024/03/29 03:18:07;;;;;;;2.30;0.90;;;;;;;10.99;59.69;97554.23;104831;1264;61197;-26
2024/03/29 03:20:34;;;;;;;1.80;1.10;;;;;;;10.98;60.01;97551.11;104855;1264;73063;-26
2024/03/29 03:23:02;;;;;;;3.30;1.50;;;;;;;10.83;61.36;97551.81;105134;1264;73083;-26
2024/03/29 03:25:29;;;;;;;5.50;1.60;;;;;;;10.48;63.58;97554.05;104851;1267;72317;-26
2024/03/29 03:27:57;;;;;;;4.50;1.20;;;;;;;10.42;64.64;97558.00;101683;1264;4543273;-27
2024/03/29 03:38:31;;;;;;;3.10;1.20;;;;;;;11.06;64.69;97562.21;102534;1295;615165;-27
2024/03/29 03:40:58;;;;;;;4.00;1.80;;;;;;;10.74;65.98;97556.92;104903;1267;61189;-29
2024/03/29 03:43:25;;;;;;;1.50;1.10;;;;;;;10.56;67.79;97564.99;105202;1264;61132;-28
2024/03/29 03:45:52;;;;;;;1.70;1.20;;;;;;;10.25;69.81;97566.66;105148;1264;72823;-28
2024/03/29 03:48:19;;;;;;;2.30;1.50;;;;;;;10.44;70.54;97572.11;104858;1264;74284;-28
2024/03/29 03:50:46;;;;;;;3.40;1.50;;;;;;;10.77;69.28;97572.09;101618;1264;4694273;-28
2024/03/29 03:53:12;;;;;;;4.30;1.60;;;;;;;10.59;70.53;97576.89;105086;1264;61213;-27
2024/03/29 03:55:40;;;;;;;5.00;1.80;;;;;;;10.22;72.17;97570.92;105011;1266;61157;-28
2024/03/29 03:58:07;;;;;;;4.70;1.40;;;;;;;10.32;71.07;97577.70;104878;1264;72896;-28
2024/03/29 04:00:34;;;;;;;2.50;1.00;;;;;;;10.37;72.87;97578.60;104986;1264;74469;-28
2024/03/29 04:03:00;;;;;;;2.40;1.00;;;;;;;10.70;71.44;97577.33;104919;1264;72658;-28
2024/03/29 04:05:28;;;;;;;3.30;1.10;;;;;;;10.68;71.86;97580.41;104894;1263;61052;-28
2024/03/29 04:07:55;;;;;;;1.50;0.90;;;;;;;10.53;72.60;97585.16;104944;1265;61142;-28
2024/03/29 04:10:22;;;;;;;1.30;1.00;;;;;;;10.14;74.28;97584.55;104936;1263;74152;-28
2024/03/29 04:12:52;;;;;;;3.20;1.30;;;;;;;10.36;73.79;97591.87;105059;1268;74318;-29
2024/03/29 04:15:19;;;;;;;1.90;1.10;;;;;;;10.78;72.84;97596.79;105056;1266;73705;-28
2024/03/29 04:17:45;;;;;;;2.70;1.30;;;;;;;10.66;73.50;97599.02;105202;1264;61124;-28
2024/03/29 04:20:12;;;;;;;2.10;1.20;;;;;;;10.63;73.59;97601.41;105219;1269;61084;-28
2024/03/29 04:22:39;;;;;;;3.70;1.30;;;;;;;10.41;74.82;97603.88;105194;1264;74206;-28
2024/03/29 04:25:07;;;;;;;1.40;1.00;;;;;;;10.00;76.95;97605.77;105107;1268;74304;-28
2024/03/29 04:27:34;;;;;;;0.60;0.60;;;;;;;10.71;74.66;97603.22;105111;1263;72647;-28
2024/03/29 04:30:01;;;;;;;1.40;1.00;;;;;;;11.11;72.96;97613.46;104970;1263;61060;-27
2024/03/29 04:32:28;;;;;;;3.10;1.40;;;;;;;11.12;72.54;97607.72;105185;1268;61101;-27
2024/03/29 04:34:55;;;;;;;3.60;1.30;;;;;;;11.01;73.20;97611.86;105071;1263;73788;-27
2024/03/29 04:37:22;;;;;;;2.90;1.50;;;;;;;10.82;74.02;97611.19;105073;1269;74262;-27
2024/03/29 04:39:49;;;;;;;0.90;0.50;;;;;;;10.53;75.52;97609.39;105034;1264;72603;-26
2024/03/29 04:42:16;;;;;;;1.30;0.90;;;;;;;11.04;74.75;97614.89;104984;1264;61945;-26
2024/03/29 04:44:43;;;;;;;3.80;0.90;;;;;;;11.60;72.55;97616.09;105122;1268;61169;-26
2024/03/29 04:47:10;;;;;;;2.80;1.00;;;;;;;11.66;71.86;97608.33;105209;1264;73689;-26
2024/03/29 04:49:37;;;;;;;1.90;1.00;;;;;;;11.50;72.02;97608.79;105155;1268;74013;-26
2024/03/29 04:52:05;;;;;;;1.10;0.80;;;;;;;11.30;72.60;97602.37;105183;1266;72474;-26
2024/03/29 04:54:33;;;;;;;2.30;1.10;;;;;;;11.08;73.04;97601.45;104904;1264;61158;-26
2024/03/29 04:57:06;;;;;;;1.40;0.80;;;;;;;10.87;73.00;97608.13;104765;1271;61199;-26
2024/03/29 04:59:33;;;;;;;2.00;0.80;;;;;;;11.40;72.88;97604.30;104827;1270;72571;-26
2024/03/29 05:02:00;;;;;;;3.00;0.90;;;;;;;12.01;71.18;97596.64;104983;1269;74324;-26
2024/03/29 05:04:27;;;;;;;1.10;0.90;;;;;;;12.15;70.56;97596.35;104827;1264;72637;-26
2024/03/29 05:06:55;;;;;;;1.10;0.80;;;;;;;12.07;70.48;97595.36;104924;1266;61633;-26
2024/03/29 05:09:22;;;;;;;1.90;1.40;;;;;;;11.88;70.27;97586.60;104778;1271;61090;-26
2024/03/29 05:11:49;;;;;;;0.90;0.70;;;;;;;11.70;70.79;97584.70;105178;1269;73640;-25
2024/03/29 05:14:18;;;;;;;1.80;0.80;;;;;;;11.46;71.82;97586.05;104909;1264;74407;-26
2024/03/29 05:16:45;;;;;;;2.00;0.90;;;;;;;11.99;71.85;97584.87;104834;1271;72486;-26
2024/03/29 05:19:13;;;;;;;2.40;1.00;;;;;;;12.56;69.60;97579.05;104771;1269;61128;-26
2024/03/29 05:21:41;;;;;;;3.30;1.10;;;;;;;12.61;68.76;97571.04;104801;1270;61119;-26
2024/03/29 05:24:08;;;;;;;5.60;2.90;;;;;;;12.45;69.05;97570.29;104903;1264;73566;-26
2024/03/29 05:26:35;;;;;;;17.10;9.90;;;;;;;11.98;70.63;97567.23;105159;1269;74867;-26
2024/03/29 05:29:03;;;;;;;69.70;34.30;;;;;;;11.57;72.43;97558.61;104851;1264;71494;-24
2024/03/29 05:31:31;;;;;;;55.70;25.70;;;;;;;11.40;72.93;97560.27;104915;1268;61985;-24
2024/03/29 05:34:00;;;;;;;85.10;41.30;;;;;;;11.95;72.32;97554.89;105103;1265;61239;-24
2024/03/29 05:36:27;;;;;;;49.60;26.30;;;;;;;12.55;70.11;97555.72;105057;1264;73577;-25
2024/03/29 05:38:54;;;;;;;39.40;19.60;;;;;;;12.62;69.31;97556.42;104900;1267;74389;-24
2024/03/29 05:41:21;;;;;;;25.80;12.90;;;;;;;12.44;69.48;97558.02;105148;1260;72594;-25
2024/03/29 05:43:48;;;;;;;25.10;13.10;;;;;;;12.15;70.02;97557.90;104998;1266;61074;-24
2024/03/29 05:46:17;;;;;;;72.30;37.10;;;;;;;11.87;71.17;97555.05;105764;1253;61237;-24
2024/03/29 05:48:44;;;;;;;14.60;8.60;;;;;;;11.55;72.51;97549.82;105726;1260;73817;-24
2024/03/29 05:51:11;;;;;;;25.90;14.90;;;;;;;11.95;72.22;97549.43;105914;1256;74598;-24
2024/03/29 05:53:38;;;;;;;49.10;25.20;;;;;;;12.24;70.86;97550.52;105845;1253;72618;-24
2024/03/29 05:56:06;;;;;;;21.00;12.10;;;;;;;12.49;69.56;97548.88;105862;1254;61071;-24
2024/03/29 05:58:34;;;;;;;14.30;9.30;;;;;;;12.38;69.04;97554.86;105730;1258;61097;-24
2024/03/29 06:01:00;;;;;;;17.60;11.50;;;;;;;12.01;70.38;97560.11;105953;1254;73897;-24
2024/03/29 06:03:28;;;;;;;18.40;12.10;;;;;;;11.80;71.02;97564.66;105900;1256;74976;-24
2024/03/29 06:05:55;;;;;;;15.60;8.70;;;;;;;11.58;71.89;97562.03;105834;1253;71556;-24
2024/03/29 06:08:24;;;;;;;32.20;17.00;;;;;;;11.91;72.40;97563.67;105880;1254;61044;-24
2024/03/29 06:10:52;;;;;;;31.20;17.10;;;;;;;12.25;70.88;97569.14;105877;1254;61140;-24
2024/03/29 06:18:50;;;;;;;16.90;7.40;;;;;;;12.05;69.64;97571.55;105905;1257;72560;-24
2024/03/29 06:21:17;;;;;;;12.50;7.70;;;;;;;11.76;70.52;97568.91;105702;1254;61077;-24
2024/03/29 06:23:44;;;;;;;7.50;4.30;;;;;;;11.50;72.04;97567.63;105498;1257;61224;-24
2024/03/29 06:26:11;;;;;;;12.30;4.90;;;;;;;11.89;72.35;97572.42;105806;1254;73743;-24
2024/03/29 06:28:38;;;;;;;47.20;25.30;;;;;;;12.24;70.81;97572.20;105720;1257;74083;-24
2024/03/29 06:31:05;;;;;;;15.40;9.10;;;;;;;11.55;73.29;97570.16;105519;1254;73139;-24
2024/03/29 06:33:32;;;;;;;35.50;19.10;;;;;;;11.79;72.96;97574.15;105660;1257;61058;-24
2024/03/29 06:35:59;;;;;;;18.10;10.50;;;;;;;11.61;73.21;97577.11;105610;1257;61745;-24
2024/03/29 06:38:26;;;;;;;10.30;6.20;;;;;;;11.51;73.29;97581.86;105585;1254;74643;-24
2024/03/29 06:40:53;;;;;;;9.40;5.50;;;;;;;11.05;75.10;97571.51;105593;1256;74142;-24
2024/03/29 06:43:20;;;;;;;13.10;7.50;;;;;;;11.30;75.45;97570.41;105707;1254;72508;-24
2024/03/29 06:45:47;;;;;;;38.40;18.30;;;;;;;11.71;73.92;97572.67;105833;1255;61058;-24
2024/03/29 06:48:14;;;;;;;95.10;44.80;;;;;;;11.95;72.73;97569.98;105550;1257;62135;-24
2024/03/29 06:50:42;;;;;;;24.60;13.80;;;;;;;11.46;74.49;97569.20;105646;1257;74004;-24
2024/03/29 06:53:09;;;;;;;20.90;10.40;;;;;;;11.02;76.67;97568.39;105886;1254;74314;-24
2024/03/29 06:55:39;;;;;;;11.90;6.90;;;;;;;10.52;78.97;97569.73;105813;1257;74197;-24
2024/03/29 06:58:06;;;;;;;7.50;3.70;;;;;;;10.73;78.57;97574.36;105778;1254;61066;-24
2024/03/29 07:00:33;;;;;;;3.80;2.10;;;;;;;10.80;77.68;97579.87;105948;1257;62091;-24
2024/03/29 07:03:00;;;;;;;3.00;1.80;;;;;;;10.53;78.99;97583.09;105836;1254;73681;-24
2024/03/29 07:05:28;;;;;;;3.10;1.90;;;;;;;10.64;78.51;97584.84;105778;1255;74883;-24
2024/03/29 07:07:55;;;;;;;2.40;1.50;;;;;;;10.58;78.87;97590.33;105673;1257;72618;-24
2024/03/29 07:10:22;;;;;;;1.90;0.70;;;;;;;10.51;79.26;97596.06;105530;1257;61927;-24
2024/03/29 07:12:50;;;;;;;0.90;0.80;;;;;;;11.20;75.52;97603.48;105593;1256;61146;-24
2024/03/29 07:15:17;;;;;;;3.00;0.80;;;;;;;11.00;75.59;97604.52;105830;1257;75681;-24
2024/03/29 07:17:44;;;;;;;1.50;1.00;;;;;;;11.13;74.92;97609.94;105887;1256;76284;-24
2024/03/29 07:20:11;;;;;;;1.20;0.80;;;;;;;11.01;75.81;97615.36;105715;1257;72550;-25
2024/03/29 07:22:38;;;;;;;1.00;0.70;;;;;;;10.98;76.53;97622.09;105683;1254;61058;-25
2024/03/29 07:25:06;;;;;;;1.00;0.50;;;;;;;11.40;75.90;97626.72;105548;1257;61220;-25
2024/03/29 07:27:35;;;;;;;0.80;0.60;;;;;;;11.78;73.25;97629.38;105693;1260;75288;-25
2024/03/29 07:30:07;;;;;;;1.50;0.50;;;;;;;11.54;73.48;97629.06;105885;1257;74363;-25
2024/03/29 07:32:35;;;;;;;1.50;0.50;;;;;;;11.33;74.25;97637.54;105705;1260;71407;-25
2024/03/29 07:35:02;;;;;;;0.40;0.40;;;;;;;10.95;75.44;97642.98;105905;1253;61722;-25
2024/03/29 07:37:30;;;;;;;2.30;0.40;;;;;;;10.44;77.78;97646.42;105916;1256;61624;-25
2024/03/29 07:39:57;;;;;;;0.30;0.20;;;;;;;11.15;75.74;97655.01;105872;1257;74019;-25
2024/03/29 07:42:25;;;;;;;2.40;0.30;;;;;;;11.21;74.22;97662.80;105784;1254;75012;-25
2024/03/29 07:44:52;;;;;;;3.20;0.40;;;;;;;11.38;74.20;97669.44;105583;1256;74499;-26
2024/03/29 07:47:21;;;;;;;0.90;0.30;;;;;;;11.15;75.17;97675.23;105679;1259;62022;-25
2024/03/29 07:49:49;;;;;;;0.20;0.20;;;;;;;10.82;76.24;97679.86;105941;1257;61817;-26
2024/03/29 07:52:16;;;;;;;0.80;0.20;;;;;;;11.05;75.96;97685.10;105648;1254;74464;-26
2024/03/29 07:54:44;;;;;;;1.60;0.30;;;;;;;11.02;74.25;97688.73;105555;1257;75771;-25
2024/03/29 07:57:14;;;;;;;0.80;0.30;;;;;;;10.88;75.12;97698.61;105579;1258;74232;-25
2024/03/29 07:59:41;;;;;;;0.20;0.20;;;;;;;10.87;75.79;97697.92;105807;1256;62585;-26
2024/03/29 08:02:08;;;;;;;0.50;0.30;;;;;;;10.63;76.48;97698.74;105872;1256;61219;-25
2024/03/29 08:04:38;;;;;;;1.20;0.40;;;;;;;10.85;76.29;97708.83;105880;1256;76100;-25
2024/03/29 08:07:05;;;;;;;0.30;0.30;;;;;;;11.15;74.88;97710.96;105906;1257;75871;-25
2024/03/29 08:09:32;;;;;;;0.50;0.40;;;;;;;11.15;75.13;97711.31;105835;1254;73271;-26
2024/03/29 08:11:59;;;;;;;0.30;0.30;;;;;;;11.01;75.46;97715.48;105963;1254;61633;-26
2024/03/29 08:14:27;;;;;;;1.50;0.30;;;;;;;10.72;77.11;97720.98;105854;1257;61324;-26
2024/03/29 08:16:54;;;;;;;0.50;0.40;;;;;;;11.15;77.15;97729.67;105903;1257;74392;-26
2024/03/29 08:19:22;;;;;;;0.20;0.20;;;;;;;11.51;75.12;97731.83;105920;1264;74722;-26
2024/03/29 08:21:49;;;;;;;0.30;0.20;;;;;;;11.41;74.60;97733.97;105584;1257;74166;-26
2024/03/29 08:24:17;;;;;;;0.40;0.30;;;;;;;11.23;76.14;97738.42;105839;1258;62043;-29
2024/03/29 08:26:44;;;;;;;1.30;0.30;;;;;;;11.17;76.28;97747.24;105761;1256;61558;-26
2024/03/29 08:29:11;;;;;;;0.50;0.20;;;;;;;11.19;77.03;97748.61;105528;1257;75906;-26
2024/03/29 08:31:39;;;;;;;0.60;0.30;;;;;;;11.66;75.28;97753.52;105732;1257;75994;-26
2024/03/29 08:34:07;;;;;;;0.50;0.40;;;;;;;11.62;74.68;97762.64;105601;1257;74211;-26
2024/03/29 08:36:34;;;;;;;1.00;0.50;;;;;;;11.76;73.72;97765.05;105666;1257;61335;-26
2024/03/29 08:39:02;;;;;;;1.40;0.50;;;;;;;11.34;75.47;97771.52;105681;1259;61908;-26
2024/03/29 08:41:30;;;;;;;2.30;1.50;;;;;;;11.30;76.13;97781.00;105703;1258;76215;-26
2024/03/29 08:43:57;;;;;;;1.70;0.80;;;;;;;11.17;76.82;97785.45;105884;1257;76074;-26
2024/03/29 08:46:24;;;;;;;1.60;1.00;;;;;;;11.47;76.02;97787.92;105848;1257;74206;-26
2024/03/29 08:48:51;;;;;;;2.00;0.80;;;;;;;11.50;75.12;97784.64;105830;1257;61881;-26
2024/03/29 08:51:19;;;;;;;1.00;0.90;;;;;;;11.41;76.69;97797.08;105612;1257;61972;-26
2024/03/29 08:53:47;;;;;;;1.30;1.10;;;;;;;11.34;77.50;97801.89;105666;1257;76061;-26
2024/03/29 08:56:15;;;;;;;1.60;0.90;;;;;;;11.14;77.97;97793.77;105708;1257;76022;-26
2024/03/29 08:58:42;;;;;;;1.30;1.00;;;;;;;11.60;76.91;97791.96;105786;1257;74433;-26
2024/03/29 09:01:14;;;;;;;1.90;1.10;;;;;;;11.98;75.63;97795.92;105853;1255;62163;-26
2024/03/29 09:03:41;;;;;;;1.10;0.90;;;;;;;11.83;76.31;97797.67;105708;1264;61244;-24
2024/03/29 09:06:09;;;;;;;1.20;0.90;;;;;;;11.72;76.17;97799.30;105907;1254;76547;-27
2024/03/29 09:08:36;;;;;;;2.60;1.00;;;;;;;11.70;77.56;97801.69;105858;1257;75826;-27
2024/03/29 09:11:03;;;;;;;1.80;1.10;;;;;;;12.15;75.38;97805.63;105851;1255;74226;-27
2024/03/29 09:13:32;;;;;;;1.90;1.50;;;;;;;12.00;74.66;97812.61;105834;1257;61913;-26
2024/03/29 09:15:59;;;;;;;4.10;1.70;;;;;;;12.07;74.80;97825.95;105623;1255;61649;-27
2024/03/29 09:18:27;;;;;;;2.30;1.50;;;;;;;11.51;75.96;97824.83;105679;1255;76473;-29
2024/03/29 09:20:58;;;;;;;2.20;1.30;;;;;;;11.41;76.93;97841.19;105670;1257;76235;-25
2024/03/29 09:23:28;;;;;;;3.20;1.50;;;;;;;11.75;75.84;97847.91;105439;1257;73759;-25
2024/03/29 09:25:55;;;;;;;2.50;1.20;;;;;;;11.57;76.02;97853.76;105832;1255;61981;-25
2024/03/29 09:28:23;;;;;;;2.20;1.60;;;;;;;11.73;75.53;97865.62;105691;1260;61734;-25
2024/03/29 09:30:56;;;;;;;3.10;1.70;;;;;;;11.65;76.18;97867.72;105934;1255;75991;-25
2024/03/29 09:33:24;;;;;;;3.30;1.40;;;;;;;11.47;76.64;97867.34;105802;1257;76176;-24
2024/03/29 09:35:51;;;;;;;4.10;1.60;;;;;;;11.63;75.82;97871.08;105679;1254;73984;-26
2024/03/29 09:38:19;;;;;;;2.40;1.70;;;;;;;11.83;74.72;97878.89;105570;1256;62181;-24
2024/03/29 09:40:46;;;;;;;5.10;2.00;;;;;;;11.74;74.66;97886.80;105800;1256;61704;-24
2024/03/29 09:43:13;;;;;;;3.40;2.10;;;;;;;11.67;75.75;97891.36;105837;1256;76173;-25
2024/03/29 09:45:54;;;;;;;3.60;2.20;;;;;;;11.65;75.92;97897.29;105584;1255;76767;-25
2024/03/29 09:48:21;;;;;;;3.60;2.10;;;;;;;11.89;74.51;97899.70;105671;1255;74066;-25
2024/03/29 09:50:49;;;;;;;3.30;2.40;;;;;;;11.78;73.07;97896.95;105821;1257;61535;-25
2024/03/29 09:53:17;;;;;;;3.60;2.30;;;;;;;11.78;74.37;97911.39;105484;1254;61218;-25
2024/03/29 09:55:44;;;;;;;3.70;2.30;;;;;;;11.98;74.37;97912.17;105798;1254;76095;-25
2024/03/29 09:58:11;;;;;;;5.30;2.60;;;;;;;12.33;73.52;97920.96;105547;1254;76177;-25
2024/03/29 10:00:38;;;;;;;2.70;2.20;;;;;;;12.71;71.42;97924.45;105525;1257;74230;-26
2024/03/29 10:03:05;;;;;;;3.00;2.70;;;;;;;13.43;71.88;97935.61;105743;1254;61655;-26
2024/03/29 10:05:33;;;;;;;5.70;2.60;;;;;;;13.44;70.31;97933.27;105912;1256;62074;-25
2024/03/29 10:08:05;;;;;;;3.40;2.60;;;;;;;13.13;70.94;97936.06;105656;1257;76222;-25
2024/03/29 10:10:33;;;;;;;4.80;2.90;;;;;;;12.94;70.36;97943.33;105631;1257;75976;-27
2024/03/29 10:13:00;;;;;;;2.80;2.20;;;;;;;12.41;71.15;97927.80;105645;1256;74452;-26
2024/03/29 10:15:32;;;;;;;3.50;2.50;;;;;;;12.35;71.29;97941.45;105806;1254;61729;-28
2024/03/29 10:17:59;;;;;;;6.00;2.70;;;;;;;12.62;70.13;97947.18;105720;1260;61841;-27
2024/03/29 10:20:27;;;;;;;3.70;2.50;;;;;;;12.53;69.54;97938.58;105852;1256;76320;-28
2024/03/29 10:22:55;;;;;;;4.30;2.60;;;;;;;12.65;69.58;97941.46;105600;1257;75689;-28
2024/03/29 10:25:23;;;;;;;4.60;2.90;;;;;;;12.73;69.58;97948.75;105493;1254;74068;-29
2024/03/29 10:27:50;;;;;;;5.10;2.20;;;;;;;12.63;69.20;97947.54;105639;1256;62205;-28
2024/03/29 10:30:19;;;;;;;5.80;2.30;;;;;;;12.78;68.68;97953.75;105697;1255;61977;-28
2024/03/29 10:32:46;;;;;;;4.80;2.70;;;;;;;13.29;67.59;97961.85;105910;1255;75339;-28
2024/03/29 10:35:14;;;;;;;6.40;2.90;;;;;;;13.26;68.23;97972.64;105768;1256;75847;-29
2024/03/29 10:37:43;;;;;;;3.70;2.50;;;;;;;13.22;67.68;97964.72;105837;1256;74655;-29
2024/03/29 10:40:15;;;;;;;6.10;3.00;;;;;;;13.08;67.87;97978.67;105820;1257;61218;-27
2024/03/29 10:42:44;;;;;;;6.70;3.00;;;;;;;12.54;68.56;97970.60;105745;1260;61925;-27
2024/03/29 10:45:11;;;;;;;3.60;2.60;;;;;;;12.69;69.66;97975.29;105947;1254;76334;-27
2024/03/29 10:47:39;;;;;;;4.80;2.80;;;;;;;13.10;67.21;97977.33;105859;1257;75586;-27
2024/03/29 10:50:07;;;;;;;3.40;2.30;;;;;;;13.22;66.68;97990.85;105738;1254;74197;-30
2024/03/29 10:52:34;;;;;;;4.20;2.30;;;;;;;13.51;65.93;97995.58;105718;1254;61225;-28
2024/03/29 10:55:02;;;;;;;3.10;2.80;;;;;;;13.42;65.72;97999.40;105888;1257;61539;-28
2024/03/29 10:57:30;;;;;;;4.20;3.00;;;;;;;13.08;66.37;98007.85;105906;1252;76252;-28
2024/03/29 11:00:06;;;;;;;4.30;3.10;;;;;;;12.84;67.42;98012.91;105888;1254;75862;-28
2024/03/29 11:02:49;;;;;;;5.70;2.40;;;;;;;12.93;66.38;98012.41;105695;1257;74240;-28
2024/03/29 11:05:17;;;;;;;4.60;2.90;;;;;;;13.02;65.50;98005.53;105707;1257;62068;-28
2024/03/29 11:07:45;;;;;;;3.30;2.50;;;;;;;13.16;65.09;98010.67;105844;1257;61226;-28
2024/03/29 11:10:26;;;;;;;4.60;2.70;;;;;;;13.17;64.59;98012.33;105885;1255;74311;-28
2024/03/29 11:13:02;;;;;;;4.60;3.20;;;;;;;12.94;65.38;98014.46;105856;1254;75261;-27
2024/03/29 11:15:30;;;;;;;7.70;3.40;;;;;;;12.91;66.19;98030.15;105714;1254;75016;-27
2024/03/29 11:17:58;;;;;;;3.60;3.00;;;;;;;12.81;66.16;98031.85;105670;1254;62062;-28
2024/03/29 11:20:34;;;;;;;5.00;2.90;;;;;;;13.24;65.45;98034.90;105808;1257;61674;-28
2024/03/29 11:23:10;;;;;;;6.40;3.00;;;;;;;13.34;64.27;98032.34;105805;1255;76405;-28
2024/03/29 11:25:44;;;;;;;2.90;2.10;;;;;;;13.46;64.39;98039.78;105861;1257;75852;-28
2024/03/29 11:28:17;;;;;;;4.70;2.20;;;;;;;13.34;64.80;98038.92;105845;1257;72662;-27
2024/03/29 11:30:47;;;;;;;;;;;;;;;13.69;63.44;98045.04;105757;1256;62173;-27
2024/03/29 11:33:33;;;;;;;4.30;2.80;;;;;;;13.54;62.87;98039.73;105835;1257;61373;-27
2024/03/29 11:36:11;;;;;;;3.50;2.40;;;;;;;13.52;63.95;98041.55;105708;1260;76053;-27
2024/03/29 11:38:39;;;;;;;3.50;2.70;;;;;;;13.59;62.14;98041.98;105688;1259;75547;-27
2024/03/29 11:41:11;;;;;;;3.10;2.20;;;;;;;13.82;61.34;98041.31;105745;1254;74393;-27
2024/03/29 11:43:39;;;;;;;4.00;2.70;;;;;;;14.01;59.39;98040.72;105889;1252;61931;-27
2024/03/29 11:46:08;;;;;;;3.00;2.30;;;;;;;13.89;60.02;98050.20;105835;1254;61796;-27
2024/03/29 11:48:36;;;;;;;3.70;2.70;;;;;;;13.69;60.34;98056.36;105720;1254;76849;-27
2024/03/29 11:51:04;;;;;;;3.00;2.60;;;;;;;13.53;60.73;98069.50;105709;1254;76244;-27
2024/03/29 11:53:33;;;;;;;3.20;2.50;;;;;;;13.63;60.53;98084.48;105669;1253;73555;-27
2024/03/29 11:56:01;;;;;;;3.60;2.30;;;;;;;13.16;61.49;98074.41;105873;1257;61632;-27
2024/03/29 11:58:30;;;;;;;4.30;1.80;;;;;;;13.15;61.39;98078.57;105747;1258;61660;-27
2024/03/29 12:00:58;;;;;;;2.10;1.70;;;;;;;13.49;61.10;98085.05;105766;1254;76193;-28
2024/03/29 12:03:27;;;;;;;2.30;2.10;;;;;;;13.68;60.00;98089.14;105564;1257;73452;-27
2024/03/29 12:05:58;;;;;;;4.40;2.40;;;;;;;14.06;59.19;98086.42;105583;1261;73979;-27
2024/03/29 12:08:26;;;;;;;2.90;1.90;;;;;;;14.16;58.62;98093.80;105659;1255;61265;-27
2024/03/29 12:18:32;;;;;;;1.80;1.60;;;;;;;14.21;58.48;98111.74;102607;1293;600149;-26
2024/03/29 12:21:00;;;;;;;3.00;2.10;;;;;;;14.33;58.20;98124.23;105033;1265;61509;-26
2024/03/29 12:23:28;;;;;;;2.00;1.20;;;;;;;14.27;59.13;98117.90;104775;1272;62146;-26
2024/03/29 12:26:00;;;;;;;3.10;1.40;;;;;;;14.66;56.33;98123.34;104829;1267;75983;-26
2024/03/29 12:28:29;;;;;;;2.90;1.50;;;;;;;14.78;57.29;98126.42;105332;1261;75896;-27
2024/03/29 12:31:00;;;;;;;2.80;1.30;;;;;;;14.27;57.90;98130.80;104234;1266;4688359;-27
2024/03/29 12:33:28;;;;;;;1.00;0.90;;;;;;;14.35;56.87;98134.48;105235;1257;61094;-26
2024/03/29 12:35:56;;;;;;;1.90;1.30;;;;;;;14.77;55.45;98126.98;105411;1257;61135;-26
2024/03/29 12:38:24;;;;;;;1.40;0.90;;;;;;;14.91;52.82;98121.45;105302;1256;61072;-27
2024/03/29 12:40:52;;;;;;;1.50;0.80;;;;;;;14.58;52.89;98144.30;105368;1263;74811;-27
2024/03/29 12:43:21;;;;;;;1.60;1.00;;;;;;;14.42;54.47;98140.70;105158;1263;77263;-27
2024/03/29 12:45:50;;;;;;;1.90;0.80;;;;;;;14.64;53.85;98147.04;105361;1258;75447;-26
2024/03/29 12:48:20;;;;;;;0.90;0.70;;;;;;;14.59;53.21;98158.91;105352;1261;62061;-26
2024/03/29 12:50:47;;;;;;;1.70;0.90;;;;;;;14.29;53.71;98154.16;105428;1263;62789;-26
2024/03/29 12:53:15;;;;;;;0.90;0.70;;;;;;;14.19;53.75;98156.81;105605;1259;77769;-27
2024/03/29 12:55:45;;;;;;;1.20;0.60;;;;;;;14.53;50.79;98150.51;105614;1257;77438;-26
2024/03/29 12:58:14;;;;;;;1.80;0.80;;;;;;;14.48;50.46;98159.59;105622;1261;74161;-26